sensor_id;sensor_type;location;lat;lon;timestamp;temperature;humidity
65766;SHT31;52915;53.718;19.946;2023-02-28T00:00:23;-2.61;74.88
65766;SHT31;52915;53.718;19.946;2023-02-28T00:11:45;-2.87;74.90
65766;SHT31;52915;53.718;19.946;2023-02-28T00:16:48;-3.01;75.08
65766;SHT31;52915;53.718;19.946;2023-02-28T00:21:52;-3.16;75.42
65766;SHT31;52915;53.718;19.946;2023-02-28T00:26:55;-3.18;75.64
65766;SHT31;52915;53.718;19.946;2023-02-28T00:31:59;-3.21;75.68
65766;SHT31;52915;53.718;19.946;2023-02-28T00:37:06;-3.23;75.79
65766;SHT31;52915;53.718;19.946;2023-02-28T00:42:15;-3.11;75.75
65766;SHT31;52915;53.718;19.946;2023-02-28T00:47:19;-2.98;75.29
65766;SHT31;52915;53.718;19.946;2023-02-28T00:59:30;-3.31;75.86
65766;SHT31;52915;53.718;19.946;2023-02-28T01:04:33;-3.33;75.94
65766;SHT31;52915;53.718;19.946;2023-02-28T01:21:37;-3.56;76.03
65766;SHT31;52915;53.718;19.946;2023-02-28T01:26:47;-3.65;76.12
65766;SHT31;52915;53.718;19.946;2023-02-28T01:31:51;-3.65;76.15
65766;SHT31;52915;53.718;19.946;2023-02-28T01:36:55;-3.57;76.08
65766;SHT31;52915;53.718;19.946;2023-02-28T01:41:58;-3.46;75.86
65766;SHT31;52915;53.718;19.946;2023-02-28T01:47:17;-3.39;75.63
65766;SHT31;52915;53.718;19.946;2023-02-28T01:52:21;-3.44;75.42
65766;SHT31;52915;53.718;19.946;2023-02-28T01:57:32;-3.49;75.50
65766;SHT31;52915;53.718;19.946;2023-02-28T02:02:49;-3.55;75.40
65766;SHT31;52915;53.718;19.946;2023-02-28T02:08:01;-3.66;75.48
65766;SHT31;52915;53.718;19.946;2023-02-28T02:24:03;-3.98;75.97
65766;SHT31;52915;53.718;19.946;2023-02-28T02:41:09;-3.92;76.48
65766;SHT31;52915;53.718;19.946;2023-02-28T02:46:47;-3.88;76.04
65766;SHT31;52915;53.718;19.946;2023-02-28T02:51:57;-3.90;76.21
65766;SHT31;52915;53.718;19.946;2023-02-28T02:57:07;-3.93;76.24
65766;SHT31;52915;53.718;19.946;2023-02-28T03:02:26;-4.06;76.24
65766;SHT31;52915;53.718;19.946;2023-02-28T03:07:37;-4.17;76.33
65766;SHT31;52915;53.718;19.946;2023-02-28T03:20:07;-4.40;76.56
65766;SHT31;52915;53.718;19.946;2023-02-28T03:36:49;-4.31;76.33
65766;SHT31;52915;53.718;19.946;2023-02-28T03:42:01;-4.17;76.18
65766;SHT31;52915;53.718;19.946;2023-02-28T03:47:20;-4.17;75.79
65766;SHT31;52915;53.718;19.946;2023-02-28T03:52:31;-4.15;75.84
65766;SHT31;52915;53.718;19.946;2023-02-28T04:16:21;-4.41;76.41
65766;SHT31;52915;53.718;19.946;2023-02-28T04:27:33;-4.60;76.24
65766;SHT31;52915;53.718;19.946;2023-02-28T04:32:37;-4.69;76.37
65766;SHT31;52915;53.718;19.946;2023-02-28T04:37:41;-4.77;76.36
65766;SHT31;52915;53.718;19.946;2023-02-28T04:42:44;-4.78;76.39
65766;SHT31;52915;53.718;19.946;2023-02-28T04:47:48;-4.80;76.36
65766;SHT31;52915;53.718;19.946;2023-02-28T04:52:51;-4.77;76.39
65766;SHT31;52915;53.718;19.946;2023-02-28T04:57:55;-4.60;76.32
65766;SHT31;52915;53.718;19.946;2023-02-28T05:03:02;-4.43;75.98
65766;SHT31;52915;53.718;19.946;2023-02-28T05:08:06;-4.41;75.78
65766;SHT31;52915;53.718;19.946;2023-02-28T05:18:39;-4.56;75.78
65766;SHT31;52915;53.718;19.946;2023-02-28T05:23:43;-4.62;75.80
65766;SHT31;52915;53.718;19.946;2023-02-28T05:28:49;-4.72;75.86
65766;SHT31;52915;53.718;19.946;2023-02-28T05:33:53;-4.77;76.02
65766;SHT31;52915;53.718;19.946;2023-02-28T05:54:33;-4.60;76.56
65766;SHT31;52915;53.718;19.946;2023-02-28T05:59:43;-4.47;76.51
65766;SHT31;52915;53.718;19.946;2023-02-28T06:04:47;-4.44;76.57
65766;SHT31;52915;53.718;19.946;2023-02-28T06:09:50;-4.43;76.67
65766;SHT31;52915;53.718;19.946;2023-02-28T06:14:54;-4.37;76.99
65766;SHT31;52915;53.718;19.946;2023-02-28T06:25:20;-3.91;77.89
65766;SHT31;52915;53.718;19.946;2023-02-28T06:30:26;-3.67;78.24
65766;SHT31;52915;53.718;19.946;2023-02-28T06:49:38;-2.20;76.82
65766;SHT31;52915;53.718;19.946;2023-02-28T06:54:42;-1.88;76.15
65766;SHT31;52915;53.718;19.946;2023-02-28T07:30:19;0.28;73.51
65766;SHT31;52915;53.718;19.946;2023-02-28T08:00:12;1.52;70.18
65766;SHT31;52915;53.718;19.946;2023-02-28T08:17:12;3.02;67.71
65766;SHT31;52915;53.718;19.946;2023-02-28T09:06:14;6.55;58.49
65766;SHT31;52915;53.718;19.946;2023-02-28T09:16:50;6.95;55.31
65766;SHT31;52915;53.718;19.946;2023-02-28T09:39:07;7.39;53.18
65766;SHT31;52915;53.718;19.946;2023-02-28T09:55:54;8.42;51.06
65766;SHT31;52915;53.718;19.946;2023-02-28T10:01:10;8.56;50.81
65766;SHT31;52915;53.718;19.946;2023-02-28T11:00:25;9.53;45.13
65766;SHT31;52915;53.718;19.946;2023-02-28T11:17:38;10.25;44.74
65766;SHT31;52915;53.718;19.946;2023-02-28T11:29:12;10.92;43.08
65766;SHT31;52915;53.718;19.946;2023-02-28T11:47:47;11.15;40.19
65766;SHT31;52915;53.718;19.946;2023-02-28T12:24:06;11.16;38.44
65766;SHT31;52915;53.718;19.946;2023-02-28T12:36:41;11.20;39.92
65766;SHT31;52915;53.718;19.946;2023-02-28T13:00:13;12.03;38.51
65766;SHT31;52915;53.718;19.946;2023-02-28T13:48:40;20.67;25.89
65766;SHT31;52915;53.718;19.946;2023-02-28T14:32:26;21.19;24.57
65766;SHT31;52915;53.718;19.946;2023-02-28T14:37:37;20.67;24.89
65766;SHT31;52915;53.718;19.946;2023-02-28T14:43:04;20.52;25.39
65766;SHT31;52915;53.718;19.946;2023-02-28T14:48:21;19.98;25.77
65766;SHT31;52915;53.718;19.946;2023-02-28T14:53:29;19.71;26.02
65766;SHT31;52915;53.718;19.946;2023-02-28T14:58:39;19.24;26.09
65766;SHT31;52915;53.718;19.946;2023-02-28T15:03:43;18.72;26.90
65766;SHT31;52915;53.718;19.946;2023-02-28T15:08:47;18.21;27.43
65766;SHT31;52915;53.718;19.946;2023-02-28T15:14:18;17.04;28.30
65766;SHT31;52915;53.718;19.946;2023-02-28T15:19:43;15.58;29.78
65766;SHT31;52915;53.718;19.946;2023-02-28T15:24:54;13.23;32.65
65766;SHT31;52915;53.718;19.946;2023-02-28T15:30:06;11.54;34.85
65766;SHT31;52915;53.718;19.946;2023-02-28T15:35:37;10.19;36.97
65766;SHT31;52915;53.718;19.946;2023-02-28T15:40:49;9.24;38.83
65766;SHT31;52915;53.718;19.946;2023-02-28T15:46:12;8.33;40.95
65766;SHT31;52915;53.718;19.946;2023-02-28T15:56:51;7.06;43.81
65766;SHT31;52915;53.718;19.946;2023-02-28T16:02:04;6.68;44.78
65766;SHT31;52915;53.718;19.946;2023-02-28T16:07:25;6.32;45.62
65766;SHT31;52915;53.718;19.946;2023-02-28T16:12:33;6.03;46.28
65766;SHT31;52915;53.718;19.946;2023-02-28T16:37:43;4.38;50.89
65766;SHT31;52915;53.718;19.946;2023-02-28T16:42:48;4.09;51.79
65766;SHT31;52915;53.718;19.946;2023-02-28T16:47:56;3.85;52.61
65766;SHT31;52915;53.718;19.946;2023-02-28T16:53:04;3.59;53.49
65766;SHT31;52915;53.718;19.946;2023-02-28T16:58:11;3.38;54.16
65766;SHT31;52915;53.718;19.946;2023-02-28T17:18:44;2.43;57.85
65766;SHT31;52915;53.718;19.946;2023-02-28T17:30:56;2.17;58.80
65766;SHT31;52915;53.718;19.946;2023-02-28T17:36:00;1.94;59.44
65766;SHT31;52915;53.718;19.946;2023-02-28T17:41:04;1.68;60.32
65766;SHT31;52915;53.718;19.946;2023-02-28T17:46:11;1.44;61.35
65766;SHT31;52915;53.718;19.946;2023-02-28T17:51:24;1.28;62.19
65766;SHT31;52915;53.718;19.946;2023-02-28T18:03:51;1.22;62.47
65766;SHT31;52915;53.718;19.946;2023-02-28T18:08:58;1.09;63.02
65766;SHT31;52915;53.718;19.946;2023-02-28T18:14:04;1.00;63.58
65766;SHT31;52915;53.718;19.946;2023-02-28T18:19:09;0.86;63.85
65766;SHT31;52915;53.718;19.946;2023-02-28T18:24:18;0.77;64.11
65766;SHT31;52915;53.718;19.946;2023-02-28T18:48:19;0.29;66.56
65766;SHT31;52915;53.718;19.946;2023-02-28T19:07:26;0.18;67.42
65766;SHT31;52915;53.718;19.946;2023-02-28T19:32:11;-0.10;68.56
65766;SHT31;52915;53.718;19.946;2023-02-28T19:43:11;-0.20;69.12
65766;SHT31;52915;53.718;19.946;2023-02-28T19:48:15;-0.20;69.18
65766;SHT31;52915;53.718;19.946;2023-02-28T19:53:20;-0.15;69.32
65766;SHT31;52915;53.718;19.946;2023-02-28T19:58:51;-0.07;69.64
65766;SHT31;52915;53.718;19.946;2023-02-28T20:03:55;-0.06;69.75
65766;SHT31;52915;53.718;19.946;2023-02-28T20:08:59;-0.13;69.94
65766;SHT31;52915;53.718;19.946;2023-02-28T20:14:03;-0.18;70.17
65766;SHT31;52915;53.718;19.946;2023-02-28T20:19:07;-0.25;70.47
65766;SHT31;52915;53.718;19.946;2023-02-28T20:24:11;-0.20;70.49
65766;SHT31;52915;53.718;19.946;2023-02-28T20:29:15;-0.14;70.46
65766;SHT31;52915;53.718;19.946;2023-02-28T20:34:20;-0.07;70.49
65766;SHT31;52915;53.718;19.946;2023-02-28T20:45:22;-0.01;70.42
65766;SHT31;52915;53.718;19.946;2023-02-28T20:50:26;-0.02;70.44
65766;SHT31;52915;53.718;19.946;2023-02-28T20:55:30;0.02;70.39
65766;SHT31;52915;53.718;19.946;2023-02-28T21:14:55;0.03;70.68
65766;SHT31;52915;53.718;19.946;2023-02-28T21:19:59;-0.00;70.96
65766;SHT31;52915;53.718;19.946;2023-02-28T21:25:03;0.01;70.92
65766;SHT31;52915;53.718;19.946;2023-02-28T21:35:36;-0.09;71.28
65766;SHT31;52915;53.718;19.946;2023-02-28T21:40:40;-0.20;71.79
65766;SHT31;52915;53.718;19.946;2023-02-28T21:45:44;-0.20;71.98
65766;SHT31;52915;53.718;19.946;2023-02-28T21:50:54;-0.17;72.04
65766;SHT31;52915;53.718;19.946;2023-02-28T21:56:05;-0.05;71.88
65766;SHT31;52915;53.718;19.946;2023-02-28T22:01:12;0.10;71.83
65766;SHT31;52915;53.718;19.946;2023-02-28T22:06:21;0.24;71.68
65766;SHT31;52915;53.718;19.946;2023-02-28T22:11:32;0.23;71.74
65766;SHT31;52915;53.718;19.946;2023-02-28T22:16:39;0.19;71.83
65766;SHT31;52915;53.718;19.946;2023-02-28T22:27:50;0.05;72.11
65766;SHT31;52915;53.718;19.946;2023-02-28T22:32:54;0.05;71.95
65766;SHT31;52915;53.718;19.946;2023-02-28T22:51:33;-0.05;72.03
65766;SHT31;52915;53.718;19.946;2023-02-28T23:02:32;-0.07;71.92
65766;SHT31;52915;53.718;19.946;2023-02-28T23:07:37;-0.07;71.68
65766;SHT31;52915;53.718;19.946;2023-02-28T23:12:42;-0.05;71.51
65766;SHT31;52915;53.718;19.946;2023-02-28T23:17:53;0.08;71.12
65766;SHT31;52915;53.718;19.946;2023-02-28T23:22:57;0.12;71.00
65766;SHT31;52915;53.718;19.946;2023-02-28T23:28:00;0.12;71.01
65766;SHT31;52915;53.718;19.946;2023-02-28T23:33:04;0.02;71.38
65766;SHT31;52915;53.718;19.946;2023-02-28T23:38:09;-0.04;71.64
65766;SHT31;52915;53.718;19.946;2023-02-28T23:43:12;-0.06;71.74
65766;SHT31;52915;53.718;19.946;2023-02-28T23:48:16;-0.07;71.70
65766;SHT31;52915;53.718;19.946;2023-02-28T23:53:20;-0.12;71.79
